Algona, Washington
Current Conditions -  °F | °C
As of 6:53 AM on Friday 24 Oct 2014 (Local Time) from KSEA Reporting Station
Overcast Overcast  
Wind Chill: 47°   Ceiling: 24000
Heat Index: 49°   Visibility: 10mi
Dew Point: 43°   Wind: 5mph
Humidity: 80%   Direction: 120°ESE
Pressure: 30.03"   Gusts: NA
Location:  47.31°N, 122.266°W
Report Text: KSEA 241353Z 12004KT 10SM FEW028 OVC240 09/06 A3003 RMK AO2 SLP177 T00940061
Loading
Personal Weather Stations






























Interactive Weather Map
Tropical Storm Tracking
New forecast layout! Learn more

10-Day Weather Forecast

Advertisements
Track Severe Weather on mobile